KTOI/TOI METAR and TAF weather

Enter ICAO airport designator
Station Type Date Time Source
KTOI METAR 2021/09/20 05:08 UTC NOAA

KTOI 200508Z AUTO 00000KT 10SM BKN013 24/22 A3001 RMK AO2 T02390217


Station Type Date Time Source
KTOI Decoded METAR 2021/09/20 05:08 UTC NOAA

TROY MUNICIPAL AIRPORT, AL, United States (KTOI) 31-52N 086-01W 118M
Sep 20, 2021 - 01:08 AM EDT / 2021.09.20 0508 UTC
Wind: Calm:0
Visibility: 10 mile(s):0
Sky conditions: mostly cloudy
Temperature: 75.0 F (23.9 C)
Dew Point: 71.1 F (21.7 C)
Relative Humidity: 87%
Pressure (altimeter): 30.01 in. Hg (1016 hPa)
ob: KTOI 200508Z AUTO 00000KT 10SM BKN013 24/22 A3001 RMK AO2 T02390217
cycle: 5

Station Type Date Time Source
KTOI TAF 2021/09/20 06:28 UTC NOAA

TAF KTOI 200526Z 2006/2106 09003KT P6SM VCSH SCT008 OVC015
TEMPO 2006/2008 BKN008
FM200800 00000KT P6SM VCSH OVC007
FM201500 15004KT P6SM VCSH OVC007 PROB30 2015/2018 4SM SHRA BR OVC005
FM201800 15005KT P6SM BKN025 PROB30 2018/2022 4SM TSRA BR BKN015CB
FM202200 19005KT P6SM BKN035 PROB30 2022/2102 4SM TSRA BR BKN025CB
FM210200 VRB03KT P6SM BKN030 PROB30 2102/2106 4SM SHRA BR OVC015

Example: see airport list